createdAt,value
2022-10-13T00:02:31.790Z,12.90
2022-10-13T00:07:33.853Z,12.80
2022-10-13T00:12:37.294Z,12.80
2022-10-13T00:17:41.972Z,12.80
2022-10-13T00:22:44.016Z,12.80
2022-10-13T00:27:46.052Z,12.80
2022-10-13T00:32:48.176Z,12.80
2022-10-13T00:37:50.304Z,12.80
2022-10-13T00:42:52.457Z,12.80
2022-10-13T00:48:00.968Z,12.70
2022-10-13T00:53:03.713Z,12.70
2022-10-13T00:58:09.447Z,12.70
2022-10-13T01:03:11.779Z,12.70
2022-10-13T01:08:15.182Z,12.80
2022-10-13T01:14:01.444Z,12.80
2022-10-13T01:19:31.315Z,12.80
2022-10-13T01:24:55.926Z,12.90
2022-10-13T01:30:07.317Z,12.90
2022-10-13T01:35:38.191Z,13.00
2022-10-13T01:40:48.923Z,13.00
2022-10-13T01:45:53.976Z,13.00
2022-10-13T01:50:58.671Z,13.10
2022-10-13T01:56:01.287Z,13.20
2022-10-13T02:01:15.390Z,13.20
2022-10-13T02:06:31.054Z,13.30
2022-10-13T02:11:33.284Z,13.30
2022-10-13T02:16:40.067Z,13.30
2022-10-13T02:21:42.856Z,13.30
2022-10-13T02:26:45.141Z,13.40
2022-10-13T02:31:47.785Z,13.40
2022-10-13T02:36:49.928Z,13.40
2022-10-13T02:41:51.998Z,13.40
2022-10-13T02:46:54.047Z,13.50
2022-10-13T02:51:56.236Z,13.50
2022-10-13T02:56:58.270Z,13.50
2022-10-13T03:02:00.373Z,13.60
2022-10-13T03:07:03.531Z,13.60
2022-10-13T03:12:05.790Z,13.70
2022-10-13T03:17:13.276Z,13.70
2022-10-13T03:22:15.691Z,13.70
2022-10-13T03:27:17.880Z,13.70
2022-10-13T03:32:20.466Z,13.70
2022-10-13T03:37:22.859Z,13.70
2022-10-13T03:42:25.035Z,13.70
2022-10-13T03:47:27.173Z,13.70
2022-10-13T03:52:30.125Z,13.70
2022-10-13T03:57:32.328Z,13.70
2022-10-13T04:02:34.411Z,13.80
2022-10-13T04:07:36.642Z,13.70
2022-10-13T04:12:43.160Z,13.80
2022-10-13T04:17:45.273Z,13.80
2022-10-13T04:22:47.337Z,13.80
2022-10-13T04:27:50.440Z,13.90
2022-10-13T04:32:52.698Z,13.90
2022-10-13T04:37:54.875Z,13.90
2022-10-13T04:42:56.980Z,13.90
2022-10-13T04:48:01.144Z,13.90
2022-10-13T04:53:03.281Z,13.80
2022-10-13T04:58:05.366Z,13.80
2022-10-13T05:03:07.876Z,13.70
2022-10-13T05:08:10.026Z,13.70
2022-10-13T05:13:12.073Z,13.80
2022-10-13T05:18:14.234Z,13.80
2022-10-13T05:23:16.925Z,13.80
2022-10-13T05:28:19.178Z,13.80
2022-10-13T05:33:21.319Z,13.80
2022-10-13T05:38:26.047Z,13.90
2022-10-13T05:43:30.295Z,13.90
2022-10-13T05:48:32.631Z,13.90
2022-10-13T05:53:41.998Z,13.80
2022-10-13T05:58:50.556Z,13.90
2022-10-13T06:03:55.673Z,13.80
2022-10-13T06:08:57.972Z,13.80
2022-10-13T06:14:00.053Z,13.80
2022-10-13T06:19:02.197Z,13.80
2022-10-13T06:24:04.743Z,13.80
2022-10-13T06:29:06.898Z,13.80
2022-10-13T06:34:09.035Z,13.80
2022-10-13T06:39:11.238Z,13.80
2022-10-13T06:44:14.231Z,13.90
2022-10-13T06:49:16.482Z,13.90
2022-10-13T06:54:18.707Z,13.90
2022-10-13T06:59:21.364Z,14.00
2022-10-13T07:04:23.844Z,14.00
2022-10-13T07:09:26.069Z,14.00
2022-10-13T07:14:28.348Z,14.00
2022-10-13T07:19:30.544Z,14.10
2022-10-13T07:24:32.602Z,14.10
2022-10-13T07:29:34.791Z,14.20
2022-10-13T07:34:37.009Z,14.20
2022-10-13T07:39:39.064Z,14.30
2022-10-13T07:44:41.187Z,14.30
2022-10-13T07:49:43.365Z,14.40
2022-10-13T07:54:45.429Z,14.40
2022-10-13T07:59:47.508Z,14.50
2022-10-13T08:04:51.061Z,14.60
2022-10-13T08:09:53.137Z,14.60
2022-10-13T08:14:55.274Z,14.70
2022-10-13T08:19:57.372Z,14.80
2022-10-13T08:25:02.170Z,14.90
2022-10-13T08:30:06.353Z,15.00
2022-10-13T08:35:10.069Z,15.10
2022-10-13T08:40:19.527Z,15.10
2022-10-13T08:45:45.930Z,15.10
2022-10-13T08:50:50.736Z,15.20
2022-10-13T08:56:09.347Z,15.40
2022-10-13T09:01:16.183Z,15.50
2022-10-13T09:06:36.781Z,15.70
2022-10-13T09:11:44.800Z,15.80
2022-10-13T09:16:47.062Z,16.00
2022-10-13T09:22:34.115Z,16.10
2022-10-13T09:27:52.788Z,16.20
2022-10-13T09:33:13.033Z,16.60
2022-10-13T09:38:15.178Z,16.60
2022-10-13T09:43:57.300Z,16.80
2022-10-13T09:49:07.631Z,17.00
2022-10-13T09:54:39.806Z,17.00
2022-10-13T09:59:49.427Z,17.00
2022-10-13T10:04:55.088Z,17.00
2022-10-13T10:10:05.453Z,17.10
2022-10-13T10:15:20.986Z,17.20
2022-10-13T10:20:38.673Z,17.40
2022-10-13T10:25:57.491Z,17.30
2022-10-13T10:31:06.133Z,17.40
2022-10-13T10:36:17.236Z,17.50
2022-10-13T10:41:46.889Z,17.50
2022-10-13T10:46:50.261Z,17.40
2022-10-13T10:51:52.769Z,17.40
2022-10-13T10:57:28.169Z,17.30
2022-10-13T11:02:39.078Z,17.30
2022-10-13T11:07:43.847Z,17.40
2022-10-13T11:12:49.075Z,17.60
2022-10-13T11:17:51.761Z,17.80
2022-10-13T11:22:59.760Z,17.90
2022-10-13T11:28:21.925Z,18.00
2022-10-13T11:33:53.069Z,18.10
2022-10-13T11:39:02.821Z,18.20
2022-10-13T11:44:29.775Z,18.30
2022-10-13T11:49:37.633Z,18.30
2022-10-13T11:54:54.398Z,18.10
2022-10-13T11:59:57.095Z,18.00
2022-10-13T12:05:06.712Z,17.90
2022-10-13T12:10:24.837Z,18.00
2022-10-13T12:15:37.495Z,18.00
2022-10-13T12:20:39.637Z,17.90
2022-10-13T12:25:48.068Z,17.60
2022-10-13T12:31:00.849Z,17.40
2022-10-13T12:36:19.216Z,17.10
2022-10-13T12:41:27.439Z,16.80
2022-10-13T12:46:52.297Z,16.60
2022-10-13T12:52:07.356Z,16.50
2022-10-13T12:57:35.269Z,16.50
2022-10-13T13:02:37.538Z,16.60
2022-10-13T13:07:39.670Z,16.50
2022-10-13T13:12:42.422Z,16.60
2022-10-13T13:18:04.572Z,16.60
2022-10-13T13:23:06.786Z,16.60
2022-10-13T13:28:16.297Z,16.50
2022-10-13T13:33:18.436Z,16.60
2022-10-13T13:38:21.332Z,16.50
2022-10-13T13:43:23.601Z,16.60
2022-10-13T13:48:26.775Z,16.60
2022-10-13T13:53:28.884Z,16.40
2022-10-13T13:58:31.110Z,16.40
2022-10-13T14:03:33.323Z,16.50
2022-10-13T14:08:42.415Z,16.40
2022-10-13T14:13:45.194Z,16.40
2022-10-13T14:18:47.569Z,16.30
2022-10-13T14:23:49.643Z,16.10
2022-10-13T14:28:51.846Z,15.90
2022-10-13T14:33:54.507Z,15.90
2022-10-13T14:38:59.079Z,15.70
2022-10-13T14:44:01.139Z,15.80
2022-10-13T14:49:03.255Z,15.80
2022-10-13T14:54:06.925Z,15.80
2022-10-13T14:59:11.269Z,15.80
2022-10-13T15:04:13.436Z,15.90
2022-10-13T15:09:15.557Z,16.00
2022-10-13T15:14:17.671Z,16.00
2022-10-13T15:19:19.867Z,16.10
2022-10-13T15:24:21.971Z,16.20
2022-10-13T15:29:27.503Z,16.20
2022-10-13T15:34:29.678Z,16.30
2022-10-13T15:39:31.926Z,16.20
2022-10-13T15:44:57.356Z,16.00
2022-10-13T15:49:56.227Z,15.70
2022-10-13T15:54:58.350Z,15.60
2022-10-13T16:00:00.493Z,15.40
2022-10-13T16:05:05.278Z,15.20
2022-10-13T16:10:09.274Z,15.20
2022-10-13T16:15:11.662Z,15.10
2022-10-13T16:20:14.269Z,14.80
2022-10-13T16:25:17.052Z,14.60
2022-10-13T16:30:19.420Z,14.50
2022-10-13T16:35:22.084Z,14.50
2022-10-13T16:40:24.392Z,14.40
2022-10-13T16:45:47.977Z,14.40
2022-10-13T16:51:39.500Z,14.50
2022-10-13T16:56:41.597Z,14.60
2022-10-13T17:01:45.247Z,14.50
2022-10-13T17:06:47.364Z,14.60
2022-10-13T17:11:49.478Z,14.60
2022-10-13T17:16:56.754Z,14.60
2022-10-13T17:21:59.794Z,14.70
2022-10-13T17:27:01.944Z,14.70
2022-10-13T17:32:04.279Z,14.70
2022-10-13T17:37:06.720Z,14.70
2022-10-13T17:42:09.392Z,14.70
2022-10-13T17:47:11.505Z,14.70
2022-10-13T17:52:13.690Z,14.70
2022-10-13T17:57:15.823Z,14.60
2022-10-13T18:02:19.062Z,14.60
2022-10-13T18:07:21.603Z,14.50
2022-10-13T18:12:24.083Z,14.50
2022-10-13T18:17:26.228Z,14.50
2022-10-13T18:22:28.374Z,14.50
2022-10-13T18:27:31.750Z,14.50
2022-10-13T18:32:34.589Z,14.50
2022-10-13T18:37:37.312Z,14.50
2022-10-13T18:42:42.311Z,14.50
2022-10-13T18:47:51.785Z,14.40
2022-10-13T18:52:53.969Z,14.40
2022-10-13T18:57:56.065Z,14.40
2022-10-13T19:02:58.155Z,14.40
2022-10-13T19:08:00.415Z,14.30
2022-10-13T19:13:02.651Z,14.30
2022-10-13T19:18:04.776Z,14.30
2022-10-13T19:23:07.076Z,14.30
2022-10-13T19:28:09.271Z,14.30
2022-10-13T19:33:12.777Z,14.40
2022-10-13T19:38:22.235Z,14.40
2022-10-13T19:43:24.733Z,14.30
2022-10-13T19:48:28.064Z,14.30
2022-10-13T19:53:30.277Z,14.30
2022-10-13T19:58:32.671Z,14.30
2022-10-13T20:03:34.719Z,14.30
2022-10-13T20:08:37.164Z,14.20
2022-10-13T20:13:39.468Z,14.20
2022-10-13T20:18:42.323Z,14.00
2022-10-13T20:23:44.475Z,14.10
2022-10-13T20:28:48.455Z,14.10
2022-10-13T20:33:57.710Z,14.10
2022-10-13T20:39:05.612Z,14.00
2022-10-13T20:44:09.826Z,14.00
2022-10-13T20:49:13.320Z,14.00
2022-10-13T20:54:16.326Z,14.00
2022-10-13T20:59:18.509Z,14.00
2022-10-13T21:04:20.603Z,14.00
2022-10-13T21:09:22.751Z,14.00
2022-10-13T21:14:24.889Z,14.00
2022-10-13T21:19:29.217Z,14.10
2022-10-13T21:24:31.324Z,14.00
2022-10-13T21:29:33.397Z,14.00
2022-10-13T21:34:35.583Z,14.00
2022-10-13T21:39:37.864Z,13.90
2022-10-13T21:44:40.156Z,13.90
2022-10-13T21:49:43.038Z,13.90
2022-10-13T21:54:45.075Z,13.90
2022-10-13T21:59:47.864Z,13.80
2022-10-13T22:04:49.937Z,13.80
2022-10-13T22:09:52.097Z,13.80
2022-10-13T22:14:54.449Z,13.80
2022-10-13T22:19:56.645Z,13.80
2022-10-13T22:24:58.785Z,13.80
2022-10-13T22:30:03.726Z,13.70
2022-10-13T22:35:06.096Z,13.70
2022-10-13T22:40:08.846Z,13.70
2022-10-13T22:45:11.144Z,13.60
2022-10-13T22:50:13.241Z,13.60
2022-10-13T22:55:15.732Z,13.50
2022-10-13T23:00:18.047Z,13.50
2022-10-13T23:05:21.437Z,13.40
2022-10-13T23:10:24.280Z,13.40
2022-10-13T23:15:26.378Z,13.40
2022-10-13T23:20:28.543Z,13.40
2022-10-13T23:25:30.704Z,13.40
2022-10-13T23:30:32.876Z,13.40
2022-10-13T23:35:35.388Z,13.40
2022-10-13T23:40:37.729Z,13.40
2022-10-13T23:45:40.032Z,13.30
2022-10-13T23:50:42.507Z,13.20
2022-10-13T23:55:44.587Z,13.30
